Ute Pass, Colorado
Current Conditions -  °F | °C
As of 9:58 AM on Saturday 25 Oct 2014 (Local Time) from KAFF Reporting Station
Clear Clear  
Wind Chill: 68°   Ceiling: Unl
Heat Index: 68°   Visibility: 10mi
Dew Point: 16°   Wind: 10mph
Humidity: 13%   Direction: 10°N
Pressure: 30.32"   Gusts: NA
Location:  38.9453°N, 105.002°W
Report Text: KAFF 251558Z AUTO 01009KT 10SM CLR 20/M09 A3032 RMK AO2 SLP209 T02001090
Loading
Personal Weather Stations






























Interactive Weather Map
Tropical Storm Tracking
New forecast layout! Learn more

10-Day Weather Forecast

Advertisements
Track Severe Weather on mobile